NOZ378 ESSA-ENTC
Flight info
| Callsign | NOZ378 |
|---|---|
| Flight time | N/A |
| Altitude | 38000 |
| Route | RESNA DCT TUDGI DCT DEXOP DCT MANKI |
| Aircraft | B738/M-SDE2E3FGHIRWXY/LB1 |
Departure
| Time | 2026-05-06 14:40 |
|---|---|
| Airport | Stockholm-Arlanda Airport (ESSA) |
Arrival
| Time | N/A |
|---|---|
| Airport | Tromsø Airport (ENTC) |
| Time | Latitude | Longitude | Altitude | Speed | Heading |
|---|---|---|---|---|---|
| 2026-05-06 14:03 | 59.65283 | 17.93175 | 111 ft | 0 kts | 251° |
| 2026-05-06 14:28 | 59.65288 | 17.93201 | 109 ft | 4 kts | 252° |
| 2026-05-06 14:28 | 59.65295 | 17.93252 | 110 ft | 4 kts | 258° |
| 2026-05-06 14:28 | 59.65299 | 17.93304 | 111 ft | 4 kts | 272° |
| 2026-05-06 14:29 | 59.65295 | 17.93347 | 110 ft | 1 kts | 296° |
| 2026-05-06 14:32 | 59.65296 | 17.93345 | 111 ft | 1 kts | 296° |
| 2026-05-06 14:33 | 59.65301 | 17.93326 | 109 ft | 4 kts | 304° |
| 2026-05-06 14:33 | 59.65361 | 17.93279 | 111 ft | 11 kts | 346° |
| 2026-05-06 14:33 | 59.65446 | 17.93225 | 109 ft | 14 kts | 326° |
| 2026-05-06 14:33 | 59.65539 | 17.93153 | 109 ft | 14 kts | 343° |
| 2026-05-06 14:34 | 59.65580 | 17.93007 | 108 ft | 14 kts | 256° |
| 2026-05-06 14:34 | 59.65564 | 17.92882 | 108 ft | 14 kts | 256° |
| 2026-05-06 14:34 | 59.65551 | 17.92781 | 107 ft | 0 kts | 255° |
| 2026-05-06 14:35 | 59.65551 | 17.92780 | 107 ft | 0 kts | 255° |
| 2026-05-06 14:35 | 59.65549 | 17.92761 | 107 ft | 4 kts | 255° |
| 2026-05-06 14:35 | 59.65537 | 17.92674 | 106 ft | 10 kts | 255° |
| 2026-05-06 14:35 | 59.65554 | 17.92519 | 104 ft | 15 kts | 330° |
| 2026-05-06 14:36 | 59.65663 | 17.92463 | 101 ft | 16 kts | 346° |
| 2026-05-06 14:36 | 59.65768 | 17.92423 | 104 ft | 15 kts | 5° |
| 2026-05-06 14:36 | 59.65872 | 17.92460 | 106 ft | 15 kts | 11° |
| 2026-05-06 14:36 | 59.65970 | 17.92496 | 108 ft | 14 kts | 10° |
| 2026-05-06 14:37 | 59.66065 | 17.92530 | 110 ft | 14 kts | 10° |
| 2026-05-06 14:37 | 59.66155 | 17.92561 | 112 ft | 13 kts | 9° |
| 2026-05-06 14:37 | 59.66243 | 17.92593 | 114 ft | 13 kts | 12° |
| 2026-05-06 14:37 | 59.66334 | 17.92628 | 116 ft | 14 kts | 9° |
| 2026-05-06 14:38 | 59.66443 | 17.92658 | 119 ft | 18 kts | 359° |
| 2026-05-06 14:38 | 59.66570 | 17.92581 | 122 ft | 21 kts | 341° |
| 2026-05-06 14:38 | 59.66601 | 17.92372 | 121 ft | 14 kts | 220° |
| 2026-05-06 14:38 | 59.66581 | 17.92357 | 119 ft | 4 kts | 191° |
| 2026-05-06 14:39 | 59.66344 | 17.92270 | 115 ft | 71 kts | 190° |
| 2026-05-06 14:39 | 59.65637 | 17.92013 | 107 ft | 134 kts | 190° |
| 2026-05-06 14:39 | 59.64594 | 17.91633 | 316 ft | 163 kts | 193° |
| 2026-05-06 14:39 | 59.63385 | 17.91222 | 719 ft | 186 kts | 191° |
| 2026-05-06 14:40 | 59.62097 | 17.90743 | 1413 ft | 191 kts | 192° |
| 2026-05-06 14:40 | 59.60783 | 17.90209 | 2196 ft | 194 kts | 192° |
| 2026-05-06 14:40 | 59.59542 | 17.89093 | 2699 ft | 207 kts | 225° |
| 2026-05-06 14:40 | 59.58901 | 17.86503 | 3225 ft | 217 kts | 252° |
| 2026-05-06 14:41 | 59.58346 | 17.83699 | 3952 ft | 217 kts | 244° |
| 2026-05-06 14:41 | 59.57688 | 17.80928 | 4500 ft | 233 kts | 249° |
| 2026-05-06 14:41 | 59.57176 | 17.77719 | 4912 ft | 255 kts | 260° |
| 2026-05-06 14:41 | 59.57432 | 17.74278 | 5754 ft | 260 kts | 296° |
| 2026-05-06 14:42 | 59.58633 | 17.71603 | 6540 ft | 267 kts | 324° |
| 2026-05-06 14:42 | 59.60353 | 17.70245 | 6903 ft | 271 kts | 351° |
| 2026-05-06 14:42 | 59.62258 | 17.70316 | 7143 ft | 279 kts | 7° |
| 2026-05-06 14:42 | 59.64147 | 17.71038 | 7976 ft | 279 kts | 10° |
| 2026-05-06 14:43 | 59.66046 | 17.71893 | 8868 ft | 280 kts | 11° |
| 2026-05-06 14:43 | 59.67965 | 17.72773 | 9685 ft | 284 kts | 10° |
| 2026-05-06 14:43 | 59.69908 | 17.73653 | 10353 ft | 292 kts | 9° |
| 2026-05-06 14:43 | 59.71975 | 17.74567 | 10549 ft | 316 kts | 9° |
| 2026-05-06 14:44 | 59.74179 | 17.75527 | 11013 ft | 329 kts | 9° |
| 2026-05-06 14:44 | 59.76432 | 17.76502 | 11718 ft | 333 kts | 8° |
| 2026-05-06 14:44 | 59.78712 | 17.77483 | 12503 ft | 337 kts | 8° |
| 2026-05-06 14:45 | 59.83325 | 17.79455 | 14032 ft | 345 kts | 7° |
| 2026-05-06 14:45 | 59.85698 | 17.80465 | 14694 ft | 352 kts | 6° |
| 2026-05-06 14:45 | 59.88122 | 17.81496 | 15353 ft | 358 kts | 6° |
| 2026-05-06 14:45 | 59.90580 | 17.82542 | 16060 ft | 363 kts | 6° |
| 2026-05-06 14:46 | 59.93078 | 17.83607 | 16759 ft | 369 kts | 6° |
| 2026-05-06 14:46 | 59.95613 | 17.84689 | 17443 ft | 375 kts | 5° |
| 2026-05-06 14:46 | 59.98185 | 17.85789 | 18118 ft | 381 kts | 5° |
| 2026-05-06 14:46 | 60.00797 | 17.86908 | 18713 ft | 386 kts | 5° |
| 2026-05-06 14:47 | 60.03413 | 17.88030 | 19288 ft | 391 kts | 5° |
| 2026-05-06 14:47 | 60.06094 | 17.89184 | 19859 ft | 397 kts | 5° |
| 2026-05-06 14:47 | 60.08811 | 17.90354 | 20442 ft | 402 kts | 5° |
| 2026-05-06 14:47 | 60.11566 | 17.91543 | 21009 ft | 407 kts | 5° |
| 2026-05-06 14:48 | 60.14353 | 17.92749 | 21612 ft | 412 kts | 4° |
| 2026-05-06 14:48 | 60.17182 | 17.93974 | 22174 ft | 416 kts | 4° |
| 2026-05-06 14:48 | 60.20030 | 17.95210 | 22717 ft | 421 kts | 4° |
| 2026-05-06 14:48 | 60.22913 | 17.96463 | 23248 ft | 426 kts | 4° |
| 2026-05-06 14:49 | 60.25833 | 17.97736 | 23747 ft | 431 kts | 4° |
| 2026-05-06 14:49 | 60.28780 | 17.99024 | 24170 ft | 436 kts | 4° |
| 2026-05-06 14:49 | 60.31762 | 18.00328 | 24594 ft | 440 kts | 4° |
| 2026-05-06 14:49 | 60.34735 | 18.01629 | 25013 ft | 444 kts | 4° |
| 2026-05-06 14:50 | 60.37773 | 18.02824 | 25413 ft | 444 kts | 359° |
| 2026-05-06 14:50 | 60.40839 | 18.03478 | 25827 ft | 443 kts | 355° |
| 2026-05-06 14:50 | 60.43930 | 18.03930 | 26241 ft | 446 kts | 354° |
| 2026-05-06 14:50 | 60.47032 | 18.04312 | 26639 ft | 449 kts | 354° |
| 2026-05-06 14:51 | 60.50174 | 18.04695 | 27029 ft | 453 kts | 354° |
| 2026-05-06 14:51 | 60.53334 | 18.05105 | 27410 ft | 458 kts | 354° |
| 2026-05-06 14:51 | 60.56526 | 18.05547 | 27783 ft | 462 kts | 354° |
| 2026-05-06 14:51 | 60.59747 | 18.06019 | 28152 ft | 466 kts | 354° |
| 2026-05-06 14:52 | 60.62991 | 18.06511 | 28521 ft | 470 kts | 354° |
| 2026-05-06 14:52 | 60.66273 | 18.07018 | 28869 ft | 473 kts | 354° |
| 2026-05-06 14:52 | 60.69565 | 18.07533 | 29222 ft | 477 kts | 354° |
| 2026-05-06 14:52 | 60.72894 | 18.08057 | 29663 ft | 480 kts | 354° |
| 2026-05-06 14:53 | 60.76103 | 18.08563 | 30010 ft | 482 kts | 354° |
| 2026-05-06 14:53 | 60.79462 | 18.09092 | 30283 ft | 485 kts | 354° |
| 2026-05-06 14:53 | 60.82844 | 18.09625 | 30575 ft | 488 kts | 354° |
| 2026-05-06 14:53 | 60.86243 | 18.10166 | 30916 ft | 489 kts | 355° |
| 2026-05-06 14:54 | 60.89643 | 18.10708 | 31246 ft | 490 kts | 355° |
| 2026-05-06 14:54 | 60.93048 | 18.11247 | 31551 ft | 491 kts | 355° |
| 2026-05-06 14:54 | 60.96455 | 18.11787 | 31914 ft | 491 kts | 355° |
| 2026-05-06 14:54 | 60.99862 | 18.12331 | 32338 ft | 489 kts | 355° |
| 2026-05-06 14:55 | 61.03244 | 18.12873 | 32857 ft | 486 kts | 355° |
| 2026-05-06 14:55 | 61.06605 | 18.13415 | 33340 ft | 483 kts | 355° |
| 2026-05-06 14:55 | 61.09913 | 18.13946 | 33731 ft | 482 kts | 354° |
| 2026-05-06 14:55 | 61.13267 | 18.14480 | 34033 ft | 482 kts | 355° |
| 2026-05-06 14:56 | 61.16619 | 18.15013 | 34306 ft | 482 kts | 355° |
| 2026-05-06 14:56 | 61.19962 | 18.15548 | 34612 ft | 481 kts | 355° |
| 2026-05-06 14:56 | 61.23295 | 18.16085 | 34933 ft | 479 kts | 355° |
| 2026-05-06 14:56 | 61.26616 | 18.16621 | 35235 ft | 478 kts | 355° |
| 2026-05-06 14:57 | 61.29935 | 18.17158 | 35510 ft | 478 kts | 356° |
| 2026-05-06 14:57 | 61.33256 | 18.17696 | 35850 ft | 476 kts | 356° |
| 2026-05-06 14:57 | 61.36519 | 18.18227 | 36190 ft | 474 kts | 356° |
| 2026-05-06 14:57 | 61.39799 | 18.18762 | 36470 ft | 473 kts | 356° |
| 2026-05-06 14:58 | 61.43083 | 18.19296 | 36693 ft | 473 kts | 356° |
| 2026-05-06 14:58 | 61.46373 | 18.19831 | 36943 ft | 473 kts | 356° |
| 2026-05-06 14:58 | 61.49655 | 18.20367 | 37215 ft | 472 kts | 357° |
| 2026-05-06 14:58 | 61.52930 | 18.20905 | 37506 ft | 471 kts | 357° |
| 2026-05-06 14:59 | 61.56191 | 18.21442 | 37770 ft | 470 kts | 357° |
| 2026-05-06 14:59 | 61.59453 | 18.21979 | 37978 ft | 470 kts | 357° |
| 2026-05-06 14:59 | 61.62724 | 18.22515 | 37997 ft | 474 kts | 358° |
| 2026-05-06 15:00 | 61.69269 | 18.23595 | 37977 ft | 472 kts | 358° |
| 2026-05-06 15:00 | 61.75792 | 18.24689 | 37974 ft | 468 kts | 358° |
| 2026-05-06 15:01 | 61.82269 | 18.25774 | 37965 ft | 465 kts | 358° |
| 2026-05-06 15:01 | 61.88724 | 18.26855 | 37965 ft | 464 kts | 357° |
| 2026-05-06 15:02 | 61.95154 | 18.27935 | 37968 ft | 464 kts | 358° |
| 2026-05-06 15:02 | 62.01551 | 18.29014 | 37974 ft | 464 kts | 358° |
| 2026-05-06 15:03 | 62.08015 | 18.30110 | 37968 ft | 466 kts | 358° |
| 2026-05-06 15:03 | 62.14505 | 18.31215 | 37969 ft | 469 kts | 358° |
| 2026-05-06 15:04 | 62.21029 | 18.32332 | 37962 ft | 471 kts | 358° |
| 2026-05-06 15:04 | 62.27589 | 18.33461 | 37955 ft | 474 kts | 358° |
| 2026-05-06 15:05 | 62.34177 | 18.34601 | 37952 ft | 475 kts | 358° |
| 2026-05-06 15:05 | 62.40744 | 18.35743 | 37951 ft | 476 kts | 358° |
| 2026-05-06 15:06 | 62.47354 | 18.36897 | 37944 ft | 476 kts | 358° |
| 2026-05-06 15:06 | 62.53963 | 18.38057 | 37970 ft | 475 kts | 358° |
| 2026-05-06 15:07 | 62.60535 | 18.39210 | 37955 ft | 479 kts | 358° |
| 2026-05-06 15:07 | 62.63706 | 18.39959 | 38916 ft | 437 kts | 4° |
| 2026-05-06 15:07 | 62.66759 | 18.40876 | 38535 ft | 452 kts | 2° |
| 2026-05-06 15:07 | 62.69949 | 18.41697 | 37865 ft | 469 kts | 358° |
| 2026-05-06 15:08 | 62.73215 | 18.42137 | 37910 ft | 470 kts | 356° |
| 2026-05-06 15:08 | 62.91917 | 18.44516 | 38068 ft | 487 kts | 358° |
| 2026-05-06 15:09 | 63.01361 | 18.46243 | 37972 ft | 495 kts | 360° |
| 2026-05-06 15:09 | 63.08182 | 18.47688 | 37916 ft | 487 kts | 359° |
| 2026-05-06 15:10 | 63.14897 | 18.48998 | 37911 ft | 482 kts | 359° |
| 2026-05-06 15:10 | 63.21545 | 18.50220 | 37925 ft | 480 kts | 359° |
| 2026-05-06 15:11 | 63.28196 | 18.51434 | 37918 ft | 479 kts | 359° |
| 2026-05-06 15:11 | 63.34840 | 18.52655 | 37922 ft | 479 kts | 359° |
| 2026-05-06 15:12 | 63.41499 | 18.53889 | 37917 ft | 480 kts | 359° |
| 2026-05-06 15:12 | 63.48172 | 18.55136 | 37918 ft | 482 kts | 359° |
| 2026-05-06 15:13 | 63.54853 | 18.56390 | 37917 ft | 484 kts | 359° |
| 2026-05-06 15:13 | 63.61594 | 18.57662 | 37917 ft | 486 kts | 359° |
| 2026-05-06 15:14 | 63.68348 | 18.58943 | 37913 ft | 487 kts | 359° |